RKV weather

Reykjavik Airport
Reykjavik, Capital Region, Iceland

Public forecast

Using degrees Celsius for public forecast. Weather courtesy of forecast.io.

Current aviation weather report (METAR) for Reykjavik Airport

Retrieved 2019/10/18 10:00 UTC (31 minutes ago):

BIRK 181000Z 08005KT CAVOK 03/M06 Q1016

Aviation forecast (TAF) for Reykjavik Airport

Retrieved 2019/10/18 09:33 UTC (58 minutes ago):

TAF BIRK 180729Z 1809/1909 09005KT CAVOK TX07/1815Z TN02/1809Z BECMG 1815/1817 9999 BKN025 TEMPO 1821/1909 -SHRA FEW015 BKN020